sensor_id;sensor_type;location;lat;lon;timestamp;P1;durP1;ratioP1;P2;durP2;ratioP2
19004;SDS011;9635;52.078;8.648;2022-11-27T00:00:27;52.60;;;22.80;;
19004;SDS011;9635;52.078;8.648;2022-11-27T00:05:29;46.25;;;25.05;;
19004;SDS011;9635;52.078;8.648;2022-11-27T00:10:32;48.45;;;24.35;;
19004;SDS011;9635;52.078;8.648;2022-11-27T00:15:36;41.58;;;22.90;;
19004;SDS011;9635;52.078;8.648;2022-11-27T00:20:39;42.22;;;23.75;;
19004;SDS011;9635;52.078;8.648;2022-11-27T00:25:48;43.90;;;22.70;;
19004;SDS011;9635;52.078;8.648;2022-11-27T00:30:56;40.88;;;23.02;;
19004;SDS011;9635;52.078;8.648;2022-11-27T00:36:00;41.00;;;20.48;;
19004;SDS011;9635;52.078;8.648;2022-11-27T00:41:04;37.85;;;20.15;;
19004;SDS011;9635;52.078;8.648;2022-11-27T00:46:10;38.75;;;18.35;;
19004;SDS011;9635;52.078;8.648;2022-11-27T00:51:14;44.13;;;21.85;;
19004;SDS011;9635;52.078;8.648;2022-11-27T00:56:19;39.25;;;19.42;;
19004;SDS011;9635;52.078;8.648;2022-11-27T01:01:26;32.00;;;16.88;;
19004;SDS011;9635;52.078;8.648;2022-11-27T01:06:31;39.13;;;17.38;;
19004;SDS011;9635;52.078;8.648;2022-11-27T01:11:34;31.08;;;16.60;;
19004;SDS011;9635;52.078;8.648;2022-11-27T01:16:39;29.85;;;13.98;;
19004;SDS011;9635;52.078;8.648;2022-11-27T01:21:44;27.85;;;14.38;;
19004;SDS011;9635;52.078;8.648;2022-11-27T01:26:47;20.23;;;12.15;;
19004;SDS011;9635;52.078;8.648;2022-11-27T01:31:51;23.80;;;12.18;;
19004;SDS011;9635;52.078;8.648;2022-11-27T01:36:54;22.95;;;11.75;;
19004;SDS011;9635;52.078;8.648;2022-11-27T01:41:57;24.30;;;12.25;;
19004;SDS011;9635;52.078;8.648;2022-11-27T01:47:01;22.77;;;11.50;;
19004;SDS011;9635;52.078;8.648;2022-11-27T01:52:08;23.58;;;12.43;;
19004;SDS011;9635;52.078;8.648;2022-11-27T01:57:14;25.75;;;12.55;;
19004;SDS011;9635;52.078;8.648;2022-11-27T02:02:21;26.55;;;13.18;;
19004;SDS011;9635;52.078;8.648;2022-11-27T02:07:24;21.45;;;13.27;;
19004;SDS011;9635;52.078;8.648;2022-11-27T02:12:29;22.58;;;13.15;;
19004;SDS011;9635;52.078;8.648;2022-11-27T02:17:40;26.60;;;13.60;;
19004;SDS011;9635;52.078;8.648;2022-11-27T02:28:29;26.00;;;14.55;;
19004;SDS011;9635;52.078;8.648;2022-11-27T02:33:45;25.08;;;13.35;;
19004;SDS011;9635;52.078;8.648;2022-11-27T02:38:57;24.08;;;14.27;;
19004;SDS011;9635;52.078;8.648;2022-11-27T02:44:05;25.10;;;13.43;;
19004;SDS011;9635;52.078;8.648;2022-11-27T02:49:13;23.02;;;14.00;;
19004;SDS011;9635;52.078;8.648;2022-11-27T02:54:19;26.83;;;14.93;;
19004;SDS011;9635;52.078;8.648;2022-11-27T02:59:27;28.92;;;15.02;;
19004;SDS011;9635;52.078;8.648;2022-11-27T03:04:36;30.75;;;15.65;;
19004;SDS011;9635;52.078;8.648;2022-11-27T03:09:43;32.47;;;17.08;;
19004;SDS011;9635;52.078;8.648;2022-11-27T03:14:49;30.77;;;16.98;;
19004;SDS011;9635;52.078;8.648;2022-11-27T03:19:53;33.08;;;17.00;;
19004;SDS011;9635;52.078;8.648;2022-11-27T03:25:00;33.80;;;17.48;;
19004;SDS011;9635;52.078;8.648;2022-11-27T03:30:04;26.15;;;15.52;;
19004;SDS011;9635;52.078;8.648;2022-11-27T03:35:11;31.45;;;17.55;;
19004;SDS011;9635;52.078;8.648;2022-11-27T03:40:17;32.72;;;16.27;;
19004;SDS011;9635;52.078;8.648;2022-11-27T03:45:23;29.85;;;16.73;;
19004;SDS011;9635;52.078;8.648;2022-11-27T03:50:34;34.03;;;16.75;;
19004;SDS011;9635;52.078;8.648;2022-11-27T03:55:48;32.53;;;15.88;;
19004;SDS011;9635;52.078;8.648;2022-11-27T04:00:56;32.60;;;16.77;;
19004;SDS011;9635;52.078;8.648;2022-11-27T04:06:03;30.05;;;16.08;;
19004;SDS011;9635;52.078;8.648;2022-11-27T04:11:05;31.10;;;15.23;;
19004;SDS011;9635;52.078;8.648;2022-11-27T04:16:09;33.10;;;15.70;;
19004;SDS011;9635;52.078;8.648;2022-11-27T04:21:13;31.23;;;16.05;;
19004;SDS011;9635;52.078;8.648;2022-11-27T04:26:17;37.65;;;18.10;;
19004;SDS011;9635;52.078;8.648;2022-11-27T04:31:20;35.75;;;16.83;;
19004;SDS011;9635;52.078;8.648;2022-11-27T04:36:24;32.63;;;16.55;;
19004;SDS011;9635;52.078;8.648;2022-11-27T04:41:27;30.85;;;17.05;;
19004;SDS011;9635;52.078;8.648;2022-11-27T04:46:30;34.80;;;16.98;;
19004;SDS011;9635;52.078;8.648;2022-11-27T04:51:34;34.42;;;16.92;;
19004;SDS011;9635;52.078;8.648;2022-11-27T04:56:37;39.65;;;17.42;;
19004;SDS011;9635;52.078;8.648;2022-11-27T05:01:40;29.38;;;15.52;;
19004;SDS011;9635;52.078;8.648;2022-11-27T05:06:44;37.95;;;18.85;;
19004;SDS011;9635;52.078;8.648;2022-11-27T05:11:47;32.13;;;16.23;;
19004;SDS011;9635;52.078;8.648;2022-11-27T05:16:50;32.88;;;16.80;;
19004;SDS011;9635;52.078;8.648;2022-11-27T05:21:56;28.70;;;15.45;;
19004;SDS011;9635;52.078;8.648;2022-11-27T05:27:00;34.20;;;15.80;;
19004;SDS011;9635;52.078;8.648;2022-11-27T05:32:03;32.42;;;16.08;;
19004;SDS011;9635;52.078;8.648;2022-11-27T05:37:07;26.67;;;13.35;;
19004;SDS011;9635;52.078;8.648;2022-11-27T05:42:15;34.55;;;17.00;;
19004;SDS011;9635;52.078;8.648;2022-11-27T05:47:18;32.30;;;15.18;;
19004;SDS011;9635;52.078;8.648;2022-11-27T05:52:22;30.52;;;13.75;;
19004;SDS011;9635;52.078;8.648;2022-11-27T05:57:25;28.33;;;14.93;;
19004;SDS011;9635;52.078;8.648;2022-11-27T06:02:28;31.80;;;14.25;;
19004;SDS011;9635;52.078;8.648;2022-11-27T06:07:33;26.05;;;13.00;;
19004;SDS011;9635;52.078;8.648;2022-11-27T06:12:35;25.75;;;14.10;;
19004;SDS011;9635;52.078;8.648;2022-11-27T06:17:38;24.92;;;12.90;;
19004;SDS011;9635;52.078;8.648;2022-11-27T06:22:42;28.15;;;14.00;;
19004;SDS011;9635;52.078;8.648;2022-11-27T06:27:45;23.70;;;13.50;;
19004;SDS011;9635;52.078;8.648;2022-11-27T06:32:48;30.45;;;14.57;;
19004;SDS011;9635;52.078;8.648;2022-11-27T06:37:52;23.48;;;13.43;;
19004;SDS011;9635;52.078;8.648;2022-11-27T06:42:55;27.30;;;14.70;;
19004;SDS011;9635;52.078;8.648;2022-11-27T06:47:58;25.75;;;13.80;;
19004;SDS011;9635;52.078;8.648;2022-11-27T06:53:02;25.55;;;13.35;;
19004;SDS011;9635;52.078;8.648;2022-11-27T06:58:05;26.95;;;13.95;;
19004;SDS011;9635;52.078;8.648;2022-11-27T07:03:08;51.83;;;20.20;;
19004;SDS011;9635;52.078;8.648;2022-11-27T07:08:12;25.40;;;13.35;;
19004;SDS011;9635;52.078;8.648;2022-11-27T07:13:15;15.38;;;9.88;;
19004;SDS011;9635;52.078;8.648;2022-11-27T07:18:18;15.48;;;9.70;;
19004;SDS011;9635;52.078;8.648;2022-11-27T07:23:22;19.40;;;11.23;;
19004;SDS011;9635;52.078;8.648;2022-11-27T07:28:25;22.73;;;11.98;;
19004;SDS011;9635;52.078;8.648;2022-11-27T07:33:28;23.55;;;12.40;;
19004;SDS011;9635;52.078;8.648;2022-11-27T07:38:32;29.17;;;13.82;;
19004;SDS011;9635;52.078;8.648;2022-11-27T07:43:35;24.02;;;14.32;;
19004;SDS011;9635;52.078;8.648;2022-11-27T07:48:38;45.13;;;23.83;;
19004;SDS011;9635;52.078;8.648;2022-11-27T07:53:43;41.40;;;22.98;;
19004;SDS011;9635;52.078;8.648;2022-11-27T07:58:46;29.63;;;16.55;;
19004;SDS011;9635;52.078;8.648;2022-11-27T08:03:49;28.23;;;15.45;;
19004;SDS011;9635;52.078;8.648;2022-11-27T08:08:54;32.63;;;16.27;;
19004;SDS011;9635;52.078;8.648;2022-11-27T08:13:57;30.75;;;17.27;;
19004;SDS011;9635;52.078;8.648;2022-11-27T08:19:02;34.38;;;15.93;;
19004;SDS011;9635;52.078;8.648;2022-11-27T08:24:06;32.83;;;15.98;;
19004;SDS011;9635;52.078;8.648;2022-11-27T08:29:10;31.08;;;16.15;;
19004;SDS011;9635;52.078;8.648;2022-11-27T08:34:13;29.45;;;14.40;;
19004;SDS011;9635;52.078;8.648;2022-11-27T08:39:18;21.17;;;12.23;;
19004;SDS011;9635;52.078;8.648;2022-11-27T08:44:21;26.23;;;12.98;;
19004;SDS011;9635;52.078;8.648;2022-11-27T08:49:24;22.90;;;11.85;;
19004;SDS011;9635;52.078;8.648;2022-11-27T08:54:28;23.75;;;13.65;;
19004;SDS011;9635;52.078;8.648;2022-11-27T08:59:31;19.05;;;10.38;;
19004;SDS011;9635;52.078;8.648;2022-11-27T09:04:33;16.80;;;9.27;;
19004;SDS011;9635;52.078;8.648;2022-11-27T09:09:38;13.73;;;8.63;;
19004;SDS011;9635;52.078;8.648;2022-11-27T09:14:41;19.17;;;9.43;;
19004;SDS011;9635;52.078;8.648;2022-11-27T09:19:44;13.65;;;7.85;;
19004;SDS011;9635;52.078;8.648;2022-11-27T09:24:48;16.13;;;9.75;;
19004;SDS011;9635;52.078;8.648;2022-11-27T09:29:51;19.60;;;10.52;;
19004;SDS011;9635;52.078;8.648;2022-11-27T09:34:54;15.73;;;9.05;;
19004;SDS011;9635;52.078;8.648;2022-11-27T09:39:58;12.45;;;8.27;;
19004;SDS011;9635;52.078;8.648;2022-11-27T09:45:01;14.48;;;8.73;;
19004;SDS011;9635;52.078;8.648;2022-11-27T09:50:09;19.20;;;9.40;;
19004;SDS011;9635;52.078;8.648;2022-11-27T09:55:17;21.50;;;10.98;;
19004;SDS011;9635;52.078;8.648;2022-11-27T10:00:25;13.55;;;8.23;;
19004;SDS011;9635;52.078;8.648;2022-11-27T10:05:32;11.45;;;7.63;;
19004;SDS011;9635;52.078;8.648;2022-11-27T10:10:48;14.88;;;8.55;;
19004;SDS011;9635;52.078;8.648;2022-11-27T10:16:02;15.93;;;8.32;;
19004;SDS011;9635;52.078;8.648;2022-11-27T10:21:13;14.23;;;8.43;;
19004;SDS011;9635;52.078;8.648;2022-11-27T10:26:24;14.07;;;7.50;;
19004;SDS011;9635;52.078;8.648;2022-11-27T10:31:32;14.40;;;8.27;;
19004;SDS011;9635;52.078;8.648;2022-11-27T10:36:38;20.88;;;8.77;;
19004;SDS011;9635;52.078;8.648;2022-11-27T10:41:49;16.98;;;8.75;;
19004;SDS011;9635;52.078;8.648;2022-11-27T10:47:00;20.90;;;9.25;;
19004;SDS011;9635;52.078;8.648;2022-11-27T10:52:05;13.43;;;8.43;;
19004;SDS011;9635;52.078;8.648;2022-11-27T11:02:41;13.60;;;6.55;;
19004;SDS011;9635;52.078;8.648;2022-11-27T11:07:51;16.13;;;6.95;;
19004;SDS011;9635;52.078;8.648;2022-11-27T11:13:07;12.90;;;6.47;;
19004;SDS011;9635;52.078;8.648;2022-11-27T11:18:17;11.57;;;5.75;;
19004;SDS011;9635;52.078;8.648;2022-11-27T11:23:21;11.10;;;6.20;;
19004;SDS011;9635;52.078;8.648;2022-11-27T11:28:28;10.32;;;6.55;;
19004;SDS011;9635;52.078;8.648;2022-11-27T11:33:47;10.57;;;5.57;;
19004;SDS011;9635;52.078;8.648;2022-11-27T11:38:53;13.25;;;6.05;;
19004;SDS011;9635;52.078;8.648;2022-11-27T11:43:59;12.82;;;6.57;;
19004;SDS011;9635;52.078;8.648;2022-11-27T11:49:04;11.48;;;6.13;;
19004;SDS011;9635;52.078;8.648;2022-11-27T11:54:12;11.50;;;4.95;;
19004;SDS011;9635;52.078;8.648;2022-11-27T11:59:27;11.30;;;6.40;;
19004;SDS011;9635;52.078;8.648;2022-11-27T12:04:52;9.85;;;6.07;;
19004;SDS011;9635;52.078;8.648;2022-11-27T12:10:07;15.88;;;5.82;;
19004;SDS011;9635;52.078;8.648;2022-11-27T12:15:18;10.45;;;5.03;;
19004;SDS011;9635;52.078;8.648;2022-11-27T12:20:31;8.05;;;4.80;;
19004;SDS011;9635;52.078;8.648;2022-11-27T12:25:44;10.77;;;4.85;;
19004;SDS011;9635;52.078;8.648;2022-11-27T12:30:56;13.27;;;5.07;;
19004;SDS011;9635;52.078;8.648;2022-11-27T12:36:10;9.70;;;5.88;;
19004;SDS011;9635;52.078;8.648;2022-11-27T12:47:12;10.23;;;6.10;;
19004;SDS011;9635;52.078;8.648;2022-11-27T12:52:21;9.57;;;5.55;;
19004;SDS011;9635;52.078;8.648;2022-11-27T12:57:29;8.48;;;5.45;;
19004;SDS011;9635;52.078;8.648;2022-11-27T13:02:39;11.15;;;5.88;;
19004;SDS011;9635;52.078;8.648;2022-11-27T13:07:47;10.45;;;5.55;;
19004;SDS011;9635;52.078;8.648;2022-11-27T13:12:59;10.82;;;5.90;;
19004;SDS011;9635;52.078;8.648;2022-11-27T13:18:12;13.07;;;6.55;;
19004;SDS011;9635;52.078;8.648;2022-11-27T13:23:20;15.80;;;7.78;;
19004;SDS011;9635;52.078;8.648;2022-11-27T13:28:24;14.55;;;9.60;;
19004;SDS011;9635;52.078;8.648;2022-11-27T13:33:36;16.08;;;8.02;;
19004;SDS011;9635;52.078;8.648;2022-11-27T13:38:41;10.93;;;4.90;;
19004;SDS011;9635;52.078;8.648;2022-11-27T13:43:45;12.02;;;6.18;;
19004;SDS011;9635;52.078;8.648;2022-11-27T13:48:51;8.43;;;4.40;;
19004;SDS011;9635;52.078;8.648;2022-11-27T13:54:07;21.92;;;10.60;;
19004;SDS011;9635;52.078;8.648;2022-11-27T13:59:13;6.40;;;3.80;;
19004;SDS011;9635;52.078;8.648;2022-11-27T14:04:18;8.82;;;5.47;;
19004;SDS011;9635;52.078;8.648;2022-11-27T14:09:30;6.68;;;4.55;;
19004;SDS011;9635;52.078;8.648;2022-11-27T14:14:36;6.13;;;2.67;;
19004;SDS011;9635;52.078;8.648;2022-11-27T14:19:42;6.78;;;5.00;;
19004;SDS011;9635;52.078;8.648;2022-11-27T14:24:51;8.43;;;4.10;;
19004;SDS011;9635;52.078;8.648;2022-11-27T14:29:56;4.13;;;2.38;;
19004;SDS011;9635;52.078;8.648;2022-11-27T14:35:00;5.47;;;2.63;;
19004;SDS011;9635;52.078;8.648;2022-11-27T14:40:10;8.85;;;5.00;;
19004;SDS011;9635;52.078;8.648;2022-11-27T14:45:16;5.60;;;4.05;;
19004;SDS011;9635;52.078;8.648;2022-11-27T14:50:21;8.60;;;4.28;;
19004;SDS011;9635;52.078;8.648;2022-11-27T14:55:24;10.15;;;5.05;;
19004;SDS011;9635;52.078;8.648;2022-11-27T15:00:34;11.45;;;5.63;;
19004;SDS011;9635;52.078;8.648;2022-11-27T15:05:39;12.43;;;6.18;;
19004;SDS011;9635;52.078;8.648;2022-11-27T15:10:41;11.60;;;5.88;;
19004;SDS011;9635;52.078;8.648;2022-11-27T15:15:44;8.52;;;4.80;;
19004;SDS011;9635;52.078;8.648;2022-11-27T15:20:58;8.57;;;4.97;;
19004;SDS011;9635;52.078;8.648;2022-11-27T15:26:03;9.18;;;4.07;;
19004;SDS011;9635;52.078;8.648;2022-11-27T15:31:23;7.68;;;5.10;;
19004;SDS011;9635;52.078;8.648;2022-11-27T15:36:37;6.80;;;4.43;;
19004;SDS011;9635;52.078;8.648;2022-11-27T15:41:48;7.05;;;4.60;;
19004;SDS011;9635;52.078;8.648;2022-11-27T15:46:53;8.48;;;5.05;;
19004;SDS011;9635;52.078;8.648;2022-11-27T15:51:59;7.50;;;5.20;;
19004;SDS011;9635;52.078;8.648;2022-11-27T15:57:01;10.50;;;5.13;;
19004;SDS011;9635;52.078;8.648;2022-11-27T16:02:05;9.00;;;5.20;;
19004;SDS011;9635;52.078;8.648;2022-11-27T16:07:11;22.08;;;15.52;;
19004;SDS011;9635;52.078;8.648;2022-11-27T16:12:14;9.70;;;6.78;;
19004;SDS011;9635;52.078;8.648;2022-11-27T16:17:17;15.45;;;8.75;;
19004;SDS011;9635;52.078;8.648;2022-11-27T16:22:21;8.73;;;5.78;;
19004;SDS011;9635;52.078;8.648;2022-11-27T16:27:24;10.77;;;5.70;;
19004;SDS011;9635;52.078;8.648;2022-11-27T16:32:27;6.80;;;4.55;;
19004;SDS011;9635;52.078;8.648;2022-11-27T16:37:32;12.35;;;4.47;;
19004;SDS011;9635;52.078;8.648;2022-11-27T16:42:35;7.75;;;4.47;;
19004;SDS011;9635;52.078;8.648;2022-11-27T16:47:38;10.35;;;5.53;;
19004;SDS011;9635;52.078;8.648;2022-11-27T16:52:42;8.40;;;4.25;;
19004;SDS011;9635;52.078;8.648;2022-11-27T16:57:53;4.80;;;2.83;;
19004;SDS011;9635;52.078;8.648;2022-11-27T17:02:56;3.97;;;3.22;;
19004;SDS011;9635;52.078;8.648;2022-11-27T17:08:00;5.85;;;3.65;;
19004;SDS011;9635;52.078;8.648;2022-11-27T17:13:03;4.85;;;2.90;;
19004;SDS011;9635;52.078;8.648;2022-11-27T17:18:06;5.90;;;3.15;;
19004;SDS011;9635;52.078;8.648;2022-11-27T17:23:11;4.85;;;3.28;;
19004;SDS011;9635;52.078;8.648;2022-11-27T17:28:13;4.28;;;3.10;;
19004;SDS011;9635;52.078;8.648;2022-11-27T17:33:18;8.90;;;2.90;;
19004;SDS011;9635;52.078;8.648;2022-11-27T17:38:22;6.47;;;3.67;;
19004;SDS011;9635;52.078;8.648;2022-11-27T17:43:25;4.53;;;3.13;;
19004;SDS011;9635;52.078;8.648;2022-11-27T17:48:30;5.05;;;2.95;;
19004;SDS011;9635;52.078;8.648;2022-11-27T17:53:36;4.00;;;2.70;;
19004;SDS011;9635;52.078;8.648;2022-11-27T17:58:39;5.07;;;3.25;;
19004;SDS011;9635;52.078;8.648;2022-11-27T18:03:42;5.47;;;3.08;;
19004;SDS011;9635;52.078;8.648;2022-11-27T18:08:49;9.13;;;3.03;;
19004;SDS011;9635;52.078;8.648;2022-11-27T18:13:52;4.28;;;3.20;;
19004;SDS011;9635;52.078;8.648;2022-11-27T18:18:57;3.63;;;2.45;;
19004;SDS011;9635;52.078;8.648;2022-11-27T18:24:02;6.03;;;3.97;;
19004;SDS011;9635;52.078;8.648;2022-11-27T18:29:25;12.93;;;6.93;;
19004;SDS011;9635;52.078;8.648;2022-11-27T18:34:28;7.45;;;4.30;;
19004;SDS011;9635;52.078;8.648;2022-11-27T18:39:32;5.00;;;3.75;;
19004;SDS011;9635;52.078;8.648;2022-11-27T18:44:36;8.73;;;4.88;;
19004;SDS011;9635;52.078;8.648;2022-11-27T18:49:45;7.78;;;5.45;;
19004;SDS011;9635;52.078;8.648;2022-11-27T18:54:50;5.32;;;4.05;;
19004;SDS011;9635;52.078;8.648;2022-11-27T18:59:53;4.32;;;3.53;;
19004;SDS011;9635;52.078;8.648;2022-11-27T19:04:56;5.18;;;3.55;;
19004;SDS011;9635;52.078;8.648;2022-11-27T19:10:00;5.68;;;3.38;;
19004;SDS011;9635;52.078;8.648;2022-11-27T19:15:04;3.28;;;2.15;;
19004;SDS011;9635;52.078;8.648;2022-11-27T19:20:08;4.22;;;3.00;;
19004;SDS011;9635;52.078;8.648;2022-11-27T19:25:14;4.00;;;2.88;;
19004;SDS011;9635;52.078;8.648;2022-11-27T19:30:17;5.32;;;3.17;;
19004;SDS011;9635;52.078;8.648;2022-11-27T19:35:20;4.32;;;3.65;;
19004;SDS011;9635;52.078;8.648;2022-11-27T19:40:28;5.78;;;3.72;;
19004;SDS011;9635;52.078;8.648;2022-11-27T19:45:33;12.27;;;7.15;;
19004;SDS011;9635;52.078;8.648;2022-11-27T19:50:38;7.43;;;4.15;;
19004;SDS011;9635;52.078;8.648;2022-11-27T19:55:42;8.63;;;5.35;;
19004;SDS011;9635;52.078;8.648;2022-11-27T20:00:45;6.22;;;3.55;;
19004;SDS011;9635;52.078;8.648;2022-11-27T20:05:48;5.85;;;3.83;;
19004;SDS011;9635;52.078;8.648;2022-11-27T20:10:59;4.85;;;3.70;;
19004;SDS011;9635;52.078;8.648;2022-11-27T20:16:05;5.20;;;3.38;;
19004;SDS011;9635;52.078;8.648;2022-11-27T20:21:09;6.35;;;3.38;;
19004;SDS011;9635;52.078;8.648;2022-11-27T20:26:17;9.20;;;4.60;;
19004;SDS011;9635;52.078;8.648;2022-11-27T20:31:22;5.68;;;3.92;;
19004;SDS011;9635;52.078;8.648;2022-11-27T20:36:28;5.85;;;3.53;;
19004;SDS011;9635;52.078;8.648;2022-11-27T20:41:33;4.18;;;3.63;;
19004;SDS011;9635;52.078;8.648;2022-11-27T20:46:36;7.22;;;4.68;;
19004;SDS011;9635;52.078;8.648;2022-11-27T20:51:39;6.15;;;3.50;;
19004;SDS011;9635;52.078;8.648;2022-11-27T20:56:44;8.90;;;5.47;;
19004;SDS011;9635;52.078;8.648;2022-11-27T21:01:47;6.45;;;3.78;;
19004;SDS011;9635;52.078;8.648;2022-11-27T21:06:51;6.93;;;4.97;;
19004;SDS011;9635;52.078;8.648;2022-11-27T21:11:55;9.43;;;5.25;;
19004;SDS011;9635;52.078;8.648;2022-11-27T21:16:59;9.23;;;6.35;;
19004;SDS011;9635;52.078;8.648;2022-11-27T21:22:07;13.63;;;9.70;;
19004;SDS011;9635;52.078;8.648;2022-11-27T21:27:11;7.07;;;6.00;;
19004;SDS011;9635;52.078;8.648;2022-11-27T21:32:14;9.45;;;6.32;;
19004;SDS011;9635;52.078;8.648;2022-11-27T21:37:19;7.47;;;4.65;;
19004;SDS011;9635;52.078;8.648;2022-11-27T21:42:25;9.85;;;6.85;;
19004;SDS011;9635;52.078;8.648;2022-11-27T21:47:29;7.43;;;5.47;;
19004;SDS011;9635;52.078;8.648;2022-11-27T21:52:32;7.57;;;5.07;;
19004;SDS011;9635;52.078;8.648;2022-11-27T21:57:37;8.43;;;5.50;;
19004;SDS011;9635;52.078;8.648;2022-11-27T22:02:41;7.63;;;5.47;;
19004;SDS011;9635;52.078;8.648;2022-11-27T22:07:45;7.97;;;5.05;;
19004;SDS011;9635;52.078;8.648;2022-11-27T22:12:50;6.85;;;4.43;;
19004;SDS011;9635;52.078;8.648;2022-11-27T22:17:52;10.70;;;5.20;;
19004;SDS011;9635;52.078;8.648;2022-11-27T22:22:56;6.80;;;5.47;;
19004;SDS011;9635;52.078;8.648;2022-11-27T22:28:00;8.75;;;5.82;;
19004;SDS011;9635;52.078;8.648;2022-11-27T22:33:03;9.80;;;5.95;;
19004;SDS011;9635;52.078;8.648;2022-11-27T22:38:06;12.60;;;7.43;;
19004;SDS011;9635;52.078;8.648;2022-11-27T22:43:11;10.65;;;7.03;;
19004;SDS011;9635;52.078;8.648;2022-11-27T22:48:14;6.75;;;5.47;;
19004;SDS011;9635;52.078;8.648;2022-11-27T22:53:17;8.40;;;6.00;;
19004;SDS011;9635;52.078;8.648;2022-11-27T22:58:21;6.88;;;5.55;;
19004;SDS011;9635;52.078;8.648;2022-11-27T23:03:24;8.07;;;5.65;;
19004;SDS011;9635;52.078;8.648;2022-11-27T23:08:27;8.82;;;6.28;;
19004;SDS011;9635;52.078;8.648;2022-11-27T23:13:31;7.55;;;4.28;;
19004;SDS011;9635;52.078;8.648;2022-11-27T23:18:34;4.90;;;3.72;;
19004;SDS011;9635;52.078;8.648;2022-11-27T23:23:38;6.55;;;3.60;;
19004;SDS011;9635;52.078;8.648;2022-11-27T23:28:43;6.47;;;4.35;;
19004;SDS011;9635;52.078;8.648;2022-11-27T23:33:45;7.90;;;5.93;;
19004;SDS011;9635;52.078;8.648;2022-11-27T23:38:48;8.93;;;5.60;;
19004;SDS011;9635;52.078;8.648;2022-11-27T23:43:53;6.95;;;5.20;;
19004;SDS011;9635;52.078;8.648;2022-11-27T23:48:56;7.60;;;5.20;;
19004;SDS011;9635;52.078;8.648;2022-11-27T23:54:00;5.57;;;4.50;;
19004;SDS011;9635;52.078;8.648;2022-11-27T23:59:08;7.15;;;5.00;;
